createdAt,value
2023-05-19T00:00:39.079Z,15.73
2023-05-19T00:02:44.010Z,15.72
2023-05-19T00:04:48.181Z,15.73
2023-05-19T00:06:52.207Z,15.73
2023-05-19T00:08:59.018Z,15.71
2023-05-19T00:11:02.644Z,15.68
2023-05-19T00:13:06.077Z,15.68
2023-05-19T00:15:11.880Z,15.66
2023-05-19T00:17:17.004Z,15.67
2023-05-19T00:19:20.059Z,15.69
2023-05-19T00:21:23.020Z,15.71
2023-05-19T00:23:26.024Z,15.68
2023-05-19T00:25:28.927Z,15.65
2023-05-19T00:27:31.823Z,15.65
2023-05-19T00:29:34.945Z,15.67
2023-05-19T00:31:39.128Z,15.68
2023-05-19T00:33:42.143Z,15.68
2023-05-19T00:35:45.025Z,15.67
2023-05-19T00:37:48.747Z,15.66
2023-05-19T00:39:51.501Z,15.65
2023-05-19T00:41:54.398Z,15.66
2023-05-19T00:43:57.229Z,15.70
2023-05-19T00:46:00.094Z,15.69
2023-05-19T00:48:04.461Z,15.67
2023-05-19T00:50:08.175Z,15.66
2023-05-19T00:52:11.136Z,15.67
2023-05-19T00:54:14.025Z,15.67
2023-05-19T00:56:17.874Z,15.68
2023-05-19T00:58:20.880Z,15.65
2023-05-19T01:00:24.482Z,15.67
2023-05-19T01:02:29.679Z,15.66
2023-05-19T01:04:37.287Z,15.64
2023-05-19T01:06:40.235Z,15.63
2023-05-19T01:08:43.017Z,15.62
2023-05-19T01:10:45.775Z,15.61
2023-05-19T01:12:49.415Z,15.61
2023-05-19T01:14:52.419Z,15.60
2023-05-19T01:17:05.361Z,15.61
2023-05-19T01:19:25.594Z,15.62
2023-05-19T01:22:00.943Z,15.61
2023-05-19T01:24:15.188Z,15.59
2023-05-19T01:26:46.283Z,15.59
2023-05-19T01:29:24.792Z,15.58
2023-05-19T01:31:29.561Z,15.56
2023-05-19T01:33:34.044Z,15.54
2023-05-19T01:35:38.720Z,15.53
2023-05-19T01:37:43.499Z,15.51
2023-05-19T01:39:47.429Z,15.50
2023-05-19T01:41:51.920Z,15.51
2023-05-19T01:43:54.930Z,15.51
2023-05-19T01:45:59.105Z,15.51
2023-05-19T01:48:06.336Z,15.48
2023-05-19T01:50:11.171Z,15.51
2023-05-19T01:52:14.076Z,15.51
2023-05-19T01:54:16.886Z,15.50
2023-05-19T01:56:30.033Z,15.46
2023-05-19T01:58:42.960Z,15.46
2023-05-19T02:00:54.212Z,15.44
2023-05-19T02:03:07.426Z,15.45
2023-05-19T02:05:18.400Z,15.44
2023-05-19T02:07:32.445Z,15.42
2023-05-19T02:09:40.775Z,15.44
2023-05-19T02:11:53.166Z,15.43
2023-05-19T02:13:58.209Z,15.44
2023-05-19T02:16:06.404Z,15.46
2023-05-19T02:18:11.571Z,15.43
2023-05-19T02:20:14.839Z,15.44
2023-05-19T02:22:17.704Z,15.44
2023-05-19T02:24:22.952Z,15.43
2023-05-19T02:26:26.114Z,15.44
2023-05-19T02:28:28.933Z,15.44
2023-05-19T02:30:32.767Z,15.44
2023-05-19T02:32:36.383Z,15.45
2023-05-19T02:34:42.163Z,15.45
2023-05-19T02:36:45.389Z,15.45
2023-05-19T02:38:48.217Z,15.45
2023-05-19T02:40:52.580Z,15.45
2023-05-19T02:42:55.618Z,15.43
2023-05-19T02:44:58.458Z,15.40
2023-05-19T02:47:01.674Z,15.40
2023-05-19T02:49:04.477Z,15.38
2023-05-19T02:51:08.589Z,15.38
2023-05-19T02:53:11.457Z,15.37
2023-05-19T02:55:17.157Z,15.36
2023-05-19T02:57:21.408Z,15.37
2023-05-19T02:59:25.733Z,15.39
2023-05-19T03:01:27.813Z,15.38
2023-05-19T03:03:31.059Z,15.37
2023-05-19T03:05:33.954Z,15.37
2023-05-19T03:07:38.332Z,15.39
2023-05-19T03:09:41.360Z,15.37
2023-05-19T03:11:44.156Z,15.36
2023-05-19T03:13:47.021Z,15.36
2023-05-19T03:15:51.031Z,15.37
2023-05-19T03:17:54.146Z,15.38
2023-05-19T03:19:57.236Z,15.37
2023-05-19T03:22:00.067Z,15.38
2023-05-19T03:24:04.528Z,15.39
2023-05-19T03:26:07.400Z,15.40
2023-05-19T03:28:10.248Z,15.39
2023-05-19T03:30:14.375Z,15.39
2023-05-19T03:32:17.465Z,15.38
2023-05-19T03:34:22.320Z,15.39
2023-05-19T03:36:26.179Z,15.38
2023-05-19T03:38:28.970Z,15.38
2023-05-19T03:40:33.350Z,15.38
2023-05-19T03:42:36.322Z,15.38
2023-05-19T03:44:39.273Z,15.36
2023-05-19T03:46:42.191Z,15.37
2023-05-19T03:48:45.046Z,15.37
2023-05-19T03:50:48.593Z,15.36
2023-05-19T03:52:51.474Z,15.36
2023-05-19T03:54:54.477Z,15.35
2023-05-19T03:56:59.195Z,15.36
2023-05-19T03:59:01.979Z,15.33
2023-05-19T04:01:04.855Z,15.32
2023-05-19T04:03:08.245Z,15.32
2023-05-19T04:05:11.637Z,15.30
2023-05-19T04:07:14.502Z,15.32
2023-05-19T04:09:17.756Z,15.31
2023-05-19T04:11:21.480Z,15.34
2023-05-19T04:13:25.666Z,15.33
2023-05-19T04:15:30.148Z,15.34
2023-05-19T04:17:33.117Z,15.32
2023-05-19T04:19:35.962Z,15.33
2023-05-19T04:21:38.969Z,15.33
2023-05-19T04:23:41.771Z,15.35
2023-05-19T04:25:44.727Z,15.35
2023-05-19T04:27:48.558Z,15.37
2023-05-19T04:29:52.921Z,15.32
2023-05-19T04:31:55.865Z,15.30
2023-05-19T04:33:58.816Z,15.30
2023-05-19T04:36:08.475Z,15.31
2023-05-19T04:38:12.054Z,15.33
2023-05-19T04:40:15.763Z,15.35
2023-05-19T04:42:19.324Z,15.36
2023-05-19T04:44:22.235Z,15.37
2023-05-19T04:46:29.713Z,15.36
2023-05-19T04:48:35.806Z,15.34
2023-05-19T04:50:42.087Z,15.34
2023-05-19T04:52:45.836Z,15.34
2023-05-19T04:54:48.771Z,15.32
2023-05-19T04:56:51.562Z,15.30
2023-05-19T04:58:54.888Z,15.28
2023-05-19T05:00:57.775Z,15.29
2023-05-19T05:03:05.180Z,15.30
2023-05-19T05:05:09.521Z,15.33
2023-05-19T05:07:12.618Z,15.31
2023-05-19T05:09:15.583Z,15.29
2023-05-19T05:11:19.089Z,15.28
2023-05-19T05:13:23.753Z,15.31
2023-05-19T05:15:28.826Z,15.35
2023-05-19T05:17:32.463Z,15.38
2023-05-19T05:19:37.401Z,15.39
2023-05-19T05:21:41.486Z,15.39
2023-05-19T05:23:45.022Z,15.37
2023-05-19T05:25:48.808Z,15.35
2023-05-19T05:27:51.821Z,15.42
2023-05-19T05:29:56.053Z,15.43
2023-05-19T05:32:01.718Z,15.48
2023-05-19T05:34:04.636Z,15.51
2023-05-19T05:36:11.213Z,15.53
2023-05-19T05:38:14.087Z,15.58
2023-05-19T05:40:17.245Z,15.63
2023-05-19T05:42:20.327Z,15.66
2023-05-19T05:44:23.137Z,15.65
2023-05-19T05:46:25.906Z,15.68
2023-05-19T05:48:29.652Z,15.72
2023-05-19T05:50:33.337Z,15.73
2023-05-19T05:52:38.620Z,15.81
2023-05-19T05:54:42.071Z,15.86
2023-05-19T05:56:45.808Z,15.92
2023-05-19T05:58:49.447Z,15.98
2023-05-19T06:00:57.620Z,16.05
2023-05-19T06:03:00.666Z,16.14
2023-05-19T06:05:03.628Z,16.19
2023-05-19T06:07:06.529Z,16.28
2023-05-19T06:09:10.727Z,16.34
2023-05-19T06:11:13.598Z,16.38
2023-05-19T06:13:22.324Z,16.43
2023-05-19T06:15:25.392Z,16.48
2023-05-19T06:17:28.240Z,16.51
2023-05-19T06:19:31.774Z,16.52
2023-05-19T06:21:34.654Z,16.55
2023-05-19T06:23:37.850Z,16.56
2023-05-19T06:25:42.190Z,16.58
2023-05-19T06:27:45.055Z,16.61
2023-05-19T06:29:47.839Z,16.66
2023-05-19T06:31:50.729Z,16.70
2023-05-19T06:33:53.702Z,16.75
2023-05-19T06:35:56.797Z,16.78
2023-05-19T06:37:59.887Z,16.81
2023-05-19T06:40:02.764Z,16.84
2023-05-19T06:42:07.187Z,16.84
2023-05-19T06:44:10.188Z,16.86
2023-05-19T06:46:13.200Z,16.86
2023-05-19T06:48:16.279Z,16.85
2023-05-19T06:50:19.623Z,16.84
2023-05-19T06:52:22.649Z,16.86
2023-05-19T06:54:25.489Z,16.84
2023-05-19T06:56:28.566Z,16.84
2023-05-19T06:58:33.168Z,16.84
2023-05-19T07:00:36.140Z,16.83
2023-05-19T07:02:39.282Z,16.83
2023-05-19T07:04:42.935Z,16.82
2023-05-19T07:06:45.725Z,16.82
2023-05-19T07:08:48.757Z,16.81
2023-05-19T07:10:52.082Z,16.82
2023-05-19T07:12:54.905Z,16.86
2023-05-19T07:14:59.329Z,16.87
2023-05-19T07:17:02.096Z,16.84
2023-05-19T07:19:05.027Z,16.81
2023-05-19T07:21:08.521Z,16.84
2023-05-19T07:23:11.443Z,16.88
2023-05-19T07:25:14.315Z,16.91
2023-05-19T07:27:17.417Z,16.87
2023-05-19T07:29:20.333Z,16.84
2023-05-19T07:31:24.543Z,16.83
2023-05-19T07:33:27.837Z,16.82
2023-05-19T07:35:30.850Z,16.85
2023-05-19T07:37:33.814Z,16.88
2023-05-19T07:39:36.998Z,16.86
2023-05-19T07:41:39.829Z,16.86
2023-05-19T07:43:43.671Z,16.83
2023-05-19T07:45:46.598Z,16.80
2023-05-19T07:47:51.095Z,16.80
2023-05-19T07:49:53.986Z,16.80
2023-05-19T07:51:57.066Z,16.82
2023-05-19T07:53:59.855Z,16.81
2023-05-19T07:56:02.618Z,16.80
2023-05-19T07:58:05.506Z,16.78
2023-05-19T08:00:11.851Z,16.78
2023-05-19T08:02:14.853Z,16.75
2023-05-19T08:04:19.246Z,16.74
2023-05-19T08:06:22.450Z,16.74
2023-05-19T08:08:25.325Z,16.72
2023-05-19T08:10:28.154Z,16.73
2023-05-19T08:12:31.326Z,16.74
2023-05-19T08:14:34.897Z,16.76
2023-05-19T08:16:37.777Z,16.73
2023-05-19T08:18:40.581Z,16.73
2023-05-19T08:20:46.264Z,16.76
2023-05-19T08:22:49.209Z,16.78
2023-05-19T08:24:52.149Z,16.83
2023-05-19T08:26:56.328Z,16.81
2023-05-19T08:28:59.209Z,16.79
2023-05-19T08:31:02.116Z,16.76
2023-05-19T08:33:05.166Z,16.77
2023-05-19T08:35:09.062Z,16.83
2023-05-19T08:37:13.339Z,16.85
2023-05-19T08:39:17.540Z,16.89
2023-05-19T08:41:21.639Z,16.91
2023-05-19T08:43:24.477Z,16.91
2023-05-19T08:45:28.167Z,16.96
2023-05-19T08:47:31.329Z,16.99
2023-05-19T08:49:41.501Z,17.04
2023-05-19T08:51:55.505Z,17.12
2023-05-19T08:54:05.655Z,17.19
2023-05-19T08:56:12.865Z,17.24
2023-05-19T08:58:20.278Z,17.27
2023-05-19T09:00:24.422Z,17.29
2023-05-19T09:02:28.481Z,17.29
2023-05-19T09:04:32.061Z,17.30
2023-05-19T09:06:34.912Z,17.29
2023-05-19T09:08:38.107Z,17.23
2023-05-19T09:10:42.202Z,17.24
2023-05-19T09:12:47.665Z,17.26
2023-05-19T09:14:50.477Z,17.29
2023-05-19T09:16:53.356Z,17.32
2023-05-19T09:18:57.154Z,17.34
2023-05-19T09:21:02.397Z,17.32
2023-05-19T09:23:05.592Z,17.34
2023-05-19T09:25:19.101Z,17.30
2023-05-19T09:27:24.428Z,17.28
2023-05-19T09:29:27.212Z,17.28
2023-05-19T09:31:33.668Z,17.24
2023-05-19T09:33:37.698Z,17.22
2023-05-19T09:35:40.564Z,17.23
2023-05-19T09:37:43.753Z,17.24
2023-05-19T09:39:49.250Z,17.30
2023-05-19T09:41:52.814Z,17.31
2023-05-19T09:43:57.413Z,17.33
2023-05-19T09:46:05.857Z,17.31
2023-05-19T09:48:09.026Z,17.31
2023-05-19T09:50:14.695Z,17.31
2023-05-19T09:52:18.188Z,17.33
2023-05-19T09:54:23.026Z,17.33
2023-05-19T09:56:26.598Z,17.36
2023-05-19T09:58:34.633Z,17.40
2023-05-19T10:00:39.679Z,17.45
2023-05-19T10:02:45.031Z,17.48
2023-05-19T10:04:49.318Z,17.50
2023-05-19T10:06:54.367Z,17.55
2023-05-19T10:08:57.487Z,17.58
2023-05-19T10:11:01.195Z,17.63
2023-05-19T10:13:05.058Z,17.65
2023-05-19T10:15:11.390Z,17.66
2023-05-19T10:17:15.978Z,17.67
2023-05-19T10:19:22.728Z,17.68
2023-05-19T10:21:25.776Z,17.72
2023-05-19T10:23:28.748Z,17.72
2023-05-19T10:25:33.385Z,17.74
2023-05-19T10:27:40.120Z,17.76
2023-05-19T10:29:50.061Z,17.78
2023-05-19T10:31:55.338Z,17.82
2023-05-19T10:34:15.165Z,17.82
2023-05-19T10:36:35.403Z,17.84
2023-05-19T10:38:44.028Z,17.84
2023-05-19T10:40:58.610Z,17.86
2023-05-19T10:43:16.832Z,17.87
2023-05-19T10:45:23.834Z,17.89
2023-05-19T10:47:27.194Z,17.89
2023-05-19T10:49:36.143Z,17.91
2023-05-19T10:51:39.095Z,17.93
2023-05-19T10:53:46.616Z,17.99
2023-05-19T10:55:53.603Z,18.03
2023-05-19T10:57:57.706Z,18.03
2023-05-19T11:00:01.335Z,18.03
2023-05-19T11:02:08.481Z,18.04
2023-05-19T11:04:12.367Z,18.08
2023-05-19T11:06:26.210Z,18.12
2023-05-19T11:08:33.597Z,18.17
2023-05-19T11:10:36.200Z,18.20
2023-05-19T11:12:44.228Z,18.24
2023-05-19T11:14:47.216Z,18.29
2023-05-19T11:16:51.401Z,18.33
2023-05-19T11:18:55.545Z,18.35
2023-05-19T11:21:02.276Z,18.38
2023-05-19T11:23:11.279Z,18.36
2023-05-19T11:25:14.244Z,18.37
2023-05-19T11:27:23.870Z,18.33
2023-05-19T11:29:26.696Z,18.37
2023-05-19T11:31:31.191Z,18.41
2023-05-19T11:33:34.741Z,18.47
2023-05-19T11:35:38.023Z,18.49
2023-05-19T11:37:42.783Z,18.51
2023-05-19T11:39:48.246Z,18.50
2023-05-19T11:41:52.389Z,18.48
2023-05-19T11:43:55.218Z,18.50
2023-05-19T11:45:58.113Z,18.51
2023-05-19T11:48:03.100Z,18.54
2023-05-19T11:50:06.782Z,18.57
2023-05-19T11:52:09.859Z,18.60
2023-05-19T11:54:13.445Z,18.63
2023-05-19T11:56:17.649Z,18.61
2023-05-19T11:58:27.122Z,18.59
2023-05-19T12:00:31.317Z,18.61
2023-05-19T12:02:34.404Z,18.64
2023-05-19T12:04:37.502Z,18.63
2023-05-19T12:06:40.441Z,18.62
2023-05-19T12:08:44.156Z,18.65
2023-05-19T12:10:50.357Z,18.62
2023-05-19T12:12:55.139Z,18.64
2023-05-19T12:14:58.334Z,18.63
2023-05-19T12:17:11.255Z,18.68
2023-05-19T12:19:14.381Z,18.73
2023-05-19T12:21:17.417Z,18.77
2023-05-19T12:23:20.620Z,18.76
2023-05-19T12:25:24.350Z,18.73
2023-05-19T12:27:29.067Z,18.71
2023-05-19T12:29:34.559Z,18.71
2023-05-19T12:31:37.996Z,18.71
2023-05-19T12:33:41.061Z,18.71
2023-05-19T12:35:44.505Z,18.70
2023-05-19T12:37:49.098Z,18.71
2023-05-19T12:39:52.069Z,18.71
2023-05-19T12:42:01.855Z,18.76
2023-05-19T12:44:15.830Z,18.77
2023-05-19T12:46:20.544Z,18.77
2023-05-19T12:48:23.958Z,18.73
2023-05-19T12:50:31.503Z,18.75
2023-05-19T12:52:38.010Z,18.76
2023-05-19T12:54:40.974Z,18.78
2023-05-19T12:56:51.332Z,18.81
2023-05-19T12:58:55.830Z,18.82
2023-05-19T13:01:01.111Z,18.85
2023-05-19T13:03:07.109Z,18.88
2023-05-19T13:05:10.272Z,18.95
2023-05-19T13:07:13.567Z,19.01
2023-05-19T13:09:17.282Z,19.04
2023-05-19T13:11:20.117Z,19.15
2023-05-19T13:13:22.949Z,19.21
2023-05-19T13:15:27.066Z,19.25
2023-05-19T13:17:30.011Z,19.32
2023-05-19T13:19:34.226Z,19.36
2023-05-19T13:21:37.034Z,19.38
2023-05-19T13:23:39.960Z,19.37
2023-05-19T13:25:43.509Z,19.41
2023-05-19T13:27:47.174Z,19.41
2023-05-19T13:29:50.049Z,19.43
2023-05-19T13:31:52.877Z,19.44
2023-05-19T13:33:55.654Z,19.46
2023-05-19T13:36:00.014Z,19.47
2023-05-19T13:38:04.224Z,19.46
2023-05-19T13:40:08.113Z,19.49
2023-05-19T13:42:11.107Z,19.53
2023-05-19T13:44:13.982Z,19.54
2023-05-19T13:46:16.833Z,19.55
2023-05-19T13:48:21.679Z,19.59
2023-05-19T13:50:24.611Z,19.62
2023-05-19T13:52:58.339Z,19.61
2023-05-19T13:54:54.398Z,19.65
2023-05-19T13:56:57.386Z,19.65
2023-05-19T13:59:00.331Z,19.70
2023-05-19T14:01:03.343Z,19.75
2023-05-19T14:03:06.886Z,19.77
2023-05-19T14:05:10.055Z,19.77
2023-05-19T14:07:13.057Z,19.81
2023-05-19T14:09:17.567Z,19.77
2023-05-19T14:11:21.597Z,19.75
2023-05-19T14:13:33.464Z,19.73
2023-05-19T14:15:38.437Z,19.75
2023-05-19T14:17:41.639Z,19.73
2023-05-19T14:19:44.624Z,19.73
2023-05-19T14:21:47.401Z,19.73
2023-05-19T14:23:50.253Z,19.71
2023-05-19T14:25:54.561Z,19.72
2023-05-19T14:27:57.387Z,19.68
2023-05-19T14:30:00.180Z,19.62
2023-05-19T14:32:06.501Z,19.60
2023-05-19T14:34:09.514Z,19.61
2023-05-19T14:36:12.406Z,19.58
2023-05-19T14:38:15.263Z,19.54
2023-05-19T14:40:18.260Z,19.53
2023-05-19T14:42:22.456Z,19.53
2023-05-19T14:44:25.466Z,19.51
2023-05-19T14:46:28.515Z,19.56
2023-05-19T14:48:31.671Z,19.56
2023-05-19T14:50:34.831Z,19.53
2023-05-19T14:52:39.065Z,19.52
2023-05-19T14:54:42.057Z,19.48
2023-05-19T14:56:45.358Z,19.49
2023-05-19T14:58:51.762Z,19.49
2023-05-19T15:00:54.846Z,19.45
2023-05-19T15:02:57.704Z,19.42
2023-05-19T15:05:00.935Z,19.41
2023-05-19T15:09:10.716Z,19.35
2023-05-19T15:11:13.572Z,19.35
2023-05-19T15:13:18.728Z,19.33
2023-05-19T15:15:22.990Z,19.36
2023-05-19T15:17:25.924Z,19.37
2023-05-19T15:19:28.837Z,19.35
2023-05-19T15:21:31.861Z,19.34
2023-05-19T15:23:34.726Z,19.31
2023-05-19T15:25:38.363Z,19.32
2023-05-19T15:27:41.322Z,19.30
2023-05-19T15:29:44.129Z,19.30
2023-05-19T15:31:51.131Z,19.29
2023-05-19T15:33:53.963Z,19.27
2023-05-19T15:35:58.241Z,19.27
2023-05-19T15:38:06.059Z,19.28
2023-05-19T15:40:10.151Z,19.29
2023-05-19T15:42:12.959Z,19.32
2023-05-19T15:44:15.704Z,19.31
2023-05-19T15:46:19.882Z,19.31
2023-05-19T15:48:24.377Z,19.26
2023-05-19T15:50:27.317Z,19.23
2023-05-19T15:52:30.192Z,19.24
2023-05-19T15:54:33.110Z,19.26
2023-05-19T15:56:35.856Z,19.25
2023-05-19T15:58:38.739Z,19.28
2023-05-19T16:00:41.614Z,19.26
2023-05-19T16:02:44.591Z,19.19
2023-05-19T16:04:49.168Z,19.16
2023-05-19T16:06:52.008Z,19.11
2023-05-19T16:08:54.804Z,19.09
2023-05-19T16:10:57.737Z,19.10
2023-05-19T16:13:00.679Z,19.07
2023-05-19T16:15:03.587Z,19.04
2023-05-19T16:17:11.423Z,19.02
2023-05-19T16:19:14.329Z,19.03
2023-05-19T16:21:18.589Z,19.02
2023-05-19T16:23:21.731Z,18.98
2023-05-19T16:25:24.968Z,18.94
2023-05-19T16:27:27.993Z,18.90
2023-05-19T16:29:30.890Z,18.86
2023-05-19T16:31:33.755Z,18.86
2023-05-19T16:33:36.624Z,18.88
2023-05-19T16:35:40.015Z,18.88
2023-05-19T16:37:44.433Z,18.87
2023-05-19T16:39:48.284Z,18.89
2023-05-19T16:41:51.139Z,18.92
2023-05-19T16:43:54.019Z,18.95
2023-05-19T16:45:57.045Z,18.99
2023-05-19T16:48:00.081Z,19.01
2023-05-19T16:50:03.415Z,18.99
2023-05-19T16:52:06.235Z,18.97
2023-05-19T16:54:10.460Z,18.94
2023-05-19T16:56:13.238Z,18.95
2023-05-19T16:58:16.023Z,18.92
2023-05-19T17:00:19.353Z,18.88
2023-05-19T17:02:22.415Z,18.83
2023-05-19T17:04:25.567Z,18.81
2023-05-19T17:06:28.563Z,18.79
2023-05-19T17:08:31.327Z,18.78
2023-05-19T17:10:36.007Z,18.73
2023-05-19T17:12:39.107Z,18.67
2023-05-19T17:14:43.419Z,18.65
2023-05-19T17:16:46.546Z,18.69
2023-05-19T17:18:49.413Z,18.72
2023-05-19T17:20:52.257Z,18.69
2023-05-19T17:22:55.278Z,18.65
2023-05-19T17:24:58.485Z,18.59
2023-05-19T17:27:02.691Z,18.55
2023-05-19T17:29:05.913Z,18.52
2023-05-19T17:31:12.291Z,18.49
2023-05-19T17:33:15.513Z,18.50
2023-05-19T17:35:18.616Z,18.51
2023-05-19T17:37:23.511Z,18.50
2023-05-19T17:39:26.306Z,18.42
2023-05-19T17:41:29.111Z,18.39
2023-05-19T17:43:33.330Z,18.39
2023-05-19T17:45:36.190Z,18.39
2023-05-19T17:47:39.314Z,18.41
2023-05-19T17:49:42.521Z,18.46
2023-05-19T17:51:45.906Z,18.46
2023-05-19T17:53:49.374Z,18.37
2023-05-19T17:55:54.268Z,18.36
2023-05-19T17:57:57.767Z,18.39
2023-05-19T18:00:03.725Z,18.39
2023-05-19T18:02:07.433Z,18.38
2023-05-19T18:04:11.787Z,18.38
2023-05-19T18:06:17.286Z,18.36
2023-05-19T18:08:20.768Z,18.33
2023-05-19T18:10:26.823Z,18.28
2023-05-19T18:12:29.822Z,18.28
2023-05-19T18:14:32.775Z,18.27
2023-05-19T18:16:37.142Z,18.29
2023-05-19T18:18:43.347Z,18.28
2023-05-19T18:20:46.653Z,18.29
2023-05-19T18:22:49.546Z,18.25
2023-05-19T18:24:52.872Z,18.22
2023-05-19T18:26:55.813Z,18.19
2023-05-19T18:29:02.523Z,18.15
2023-05-19T18:31:07.528Z,18.08
2023-05-19T18:33:12.025Z,18.04
2023-05-19T18:35:16.605Z,18.02
2023-05-19T18:37:19.499Z,18.01
2023-05-19T18:39:23.782Z,17.99
2023-05-19T18:41:27.141Z,17.94
2023-05-19T18:43:32.432Z,17.89
2023-05-19T18:45:35.577Z,17.90
2023-05-19T18:47:38.468Z,17.87
2023-05-19T18:49:43.125Z,17.83
2023-05-19T18:51:48.456Z,17.82
2023-05-19T18:53:51.287Z,17.85
2023-05-19T18:55:54.066Z,17.83
2023-05-19T18:57:56.968Z,17.81
2023-05-19T19:00:01.987Z,17.81
2023-05-19T19:02:04.879Z,17.83
2023-05-19T19:04:07.849Z,17.79
2023-05-19T19:06:12.078Z,17.75
2023-05-19T19:08:14.878Z,17.71
2023-05-19T19:10:19.250Z,17.69
2023-05-19T19:12:22.123Z,17.72
2023-05-19T19:14:25.019Z,17.75
2023-05-19T19:16:28.133Z,17.73
2023-05-19T19:18:31.111Z,17.72
2023-05-19T19:20:34.250Z,17.71
2023-05-19T19:22:38.701Z,17.70
2023-05-19T19:24:43.015Z,17.73
2023-05-19T19:26:46.077Z,17.74
2023-05-19T19:28:48.957Z,17.81
2023-05-19T19:30:51.834Z,17.83
2023-05-19T19:32:56.844Z,17.83
2023-05-19T19:34:59.949Z,17.84
2023-05-19T19:37:02.838Z,17.88
2023-05-19T19:39:07.162Z,17.88
2023-05-19T19:41:10.238Z,17.86
2023-05-19T19:43:15.368Z,17.82
2023-05-19T19:45:19.516Z,17.78
2023-05-19T19:47:22.809Z,17.74
2023-05-19T19:49:26.024Z,17.69
2023-05-19T19:51:28.955Z,17.66
2023-05-19T19:53:33.032Z,17.66
2023-05-19T19:55:37.166Z,17.66
2023-05-19T19:57:39.949Z,17.66
2023-05-19T19:59:42.989Z,17.58
2023-05-19T20:01:46.001Z,17.59
2023-05-19T20:03:49.012Z,17.56
2023-05-19T20:05:52.174Z,17.56
2023-05-19T20:07:54.977Z,17.54
2023-05-19T20:09:57.798Z,17.55
2023-05-19T20:12:01.991Z,17.49
2023-05-19T20:14:05.139Z,17.44
2023-05-19T20:16:07.958Z,17.41
2023-05-19T20:18:10.889Z,17.40
2023-05-19T20:20:14.602Z,17.39
2023-05-19T20:22:17.370Z,17.40
2023-05-19T20:24:20.485Z,17.42
2023-05-19T20:26:23.570Z,17.40
2023-05-19T20:28:27.754Z,17.41
2023-05-19T20:30:30.829Z,17.39
2023-05-19T20:32:33.743Z,17.38
2023-05-19T20:34:36.652Z,17.42
2023-05-19T20:36:39.700Z,17.46
2023-05-19T20:38:42.788Z,17.38
2023-05-19T20:40:45.919Z,17.36
2023-05-19T20:42:48.911Z,17.31
2023-05-19T20:44:53.128Z,17.27
2023-05-19T20:46:56.507Z,17.29
2023-05-19T20:48:59.659Z,17.30
2023-05-19T20:51:02.620Z,17.30
2023-05-19T20:53:07.288Z,17.28
2023-05-19T20:55:10.524Z,17.33
2023-05-19T20:57:13.705Z,17.34
2023-05-19T20:59:16.602Z,17.27
2023-05-19T21:01:21.156Z,17.23
2023-05-19T21:03:24.591Z,17.22
2023-05-19T21:05:27.402Z,17.16
2023-05-19T21:07:30.322Z,17.16
2023-05-19T21:09:33.074Z,17.16
2023-05-19T21:11:35.934Z,17.13
2023-05-19T21:13:39.647Z,17.12
2023-05-19T21:15:42.716Z,17.10
2023-05-19T21:17:49.053Z,17.10
2023-05-19T21:19:56.516Z,17.07
2023-05-19T21:21:59.310Z,17.06
2023-05-19T21:24:02.137Z,17.09
2023-05-19T21:26:05.952Z,17.12
2023-05-19T21:28:09.832Z,17.12
2023-05-19T21:30:13.881Z,17.12
2023-05-19T21:32:16.618Z,17.15
2023-05-19T21:34:20.776Z,17.17
2023-05-19T21:36:23.522Z,17.16
2023-05-19T21:38:26.523Z,17.15
2023-05-19T21:40:29.410Z,17.10
2023-05-19T21:42:32.181Z,17.06
2023-05-19T21:44:35.067Z,17.05
2023-05-19T21:46:38.021Z,17.06
2023-05-19T21:48:41.009Z,17.07
2023-05-19T21:50:45.508Z,17.02
2023-05-19T21:52:48.503Z,16.99
2023-05-19T21:54:52.001Z,16.97
2023-05-19T21:56:55.125Z,16.94
2023-05-19T21:58:58.060Z,16.93
2023-05-19T22:01:01.518Z,16.95
2023-05-19T22:03:04.645Z,16.90
2023-05-19T22:05:08.337Z,16.87
2023-05-19T22:07:12.613Z,16.83
2023-05-19T22:09:15.634Z,16.87
2023-05-19T22:11:18.906Z,16.84
2023-05-19T22:13:22.192Z,16.83
2023-05-19T22:15:27.389Z,16.84
2023-05-19T22:17:30.420Z,16.84
2023-05-19T22:19:33.441Z,16.85
2023-05-19T22:21:36.742Z,16.84
2023-05-19T22:23:41.147Z,16.86
2023-05-19T22:25:44.029Z,16.83
2023-05-19T22:27:47.127Z,16.79
2023-05-19T22:29:52.330Z,16.76
2023-05-19T22:31:55.665Z,16.76
2023-05-19T22:33:58.894Z,16.75
2023-05-19T22:36:02.052Z,16.74
2023-05-19T22:38:04.970Z,16.71
2023-05-19T22:40:10.181Z,16.74
2023-05-19T22:42:13.089Z,16.77
2023-05-19T22:44:16.305Z,16.78
2023-05-19T22:46:19.434Z,16.77
2023-05-19T22:48:22.290Z,16.71
2023-05-19T22:50:25.220Z,16.71
2023-05-19T22:52:28.316Z,16.71
2023-05-19T22:54:31.453Z,16.73
2023-05-19T22:56:35.916Z,16.68
2023-05-19T22:58:39.100Z,16.69
2023-05-19T23:00:41.809Z,16.67
2023-05-19T23:02:44.991Z,16.69
2023-05-19T23:04:48.013Z,16.61
2023-05-19T23:06:51.265Z,16.56
2023-05-19T23:09:00.729Z,16.52
2023-05-19T23:11:03.709Z,16.51
2023-05-19T23:13:08.176Z,16.50
2023-05-19T23:15:12.297Z,16.48
2023-05-19T23:17:15.294Z,16.49
2023-05-19T23:19:20.273Z,16.56
2023-05-19T23:21:23.713Z,16.59
2023-05-19T23:23:27.693Z,16.56
2023-05-19T23:25:32.463Z,16.56
2023-05-19T23:27:36.223Z,16.59
2023-05-19T23:29:40.652Z,16.58
2023-05-19T23:31:43.620Z,16.55
2023-05-19T23:33:46.600Z,16.57
2023-05-19T23:35:49.921Z,16.61
2023-05-19T23:37:54.417Z,16.64
2023-05-19T23:39:57.422Z,16.66
2023-05-19T23:42:00.298Z,16.67
2023-05-19T23:44:03.143Z,16.64
2023-05-19T23:46:07.468Z,16.60
2023-05-19T23:48:11.168Z,16.63
2023-05-19T23:50:14.093Z,16.64
2023-05-19T23:52:17.192Z,16.65
2023-05-19T23:54:20.098Z,16.62
2023-05-19T23:56:23.156Z,16.63
2023-05-19T23:58:26.122Z,16.62
